sensor_id;sensor_type;location;lat;lon;timestamp;P1;durP1;ratioP1;P2;durP2;ratioP2
27293;SDS011;14785;52.556;13.430;2022-07-25T00:00:36;2.22;;;1.98;;
27293;SDS011;14785;52.556;13.430;2022-07-25T00:03:01;2.00;;;1.57;;
27293;SDS011;14785;52.556;13.430;2022-07-25T00:05:26;2.80;;;1.63;;
27293;SDS011;14785;52.556;13.430;2022-07-25T00:07:52;2.53;;;1.90;;
27293;SDS011;14785;52.556;13.430;2022-07-25T00:10:17;2.80;;;2.10;;
27293;SDS011;14785;52.556;13.430;2022-07-25T00:12:43;1.70;;;1.60;;
27293;SDS011;14785;52.556;13.430;2022-07-25T00:15:09;4.28;;;1.70;;
27293;SDS011;14785;52.556;13.430;2022-07-25T00:17:34;3.55;;;2.17;;
27293;SDS011;14785;52.556;13.430;2022-07-25T00:20:00;1.60;;;1.50;;
27293;SDS011;14785;52.556;13.430;2022-07-25T00:22:25;4.40;;;3.05;;
27293;SDS011;14785;52.556;13.430;2022-07-25T00:24:51;5.55;;;2.00;;
27293;SDS011;14785;52.556;13.430;2022-07-25T00:27:17;1.60;;;1.50;;
27293;SDS011;14785;52.556;13.430;2022-07-25T00:29:42;3.57;;;2.07;;
27293;SDS011;14785;52.556;13.430;2022-07-25T00:32:07;5.03;;;2.17;;
27293;SDS011;14785;52.556;13.430;2022-07-25T00:34:33;5.47;;;2.50;;
27293;SDS011;14785;52.556;13.430;2022-07-25T00:36:58;2.20;;;2.00;;
27293;SDS011;14785;52.556;13.430;2022-07-25T00:39:24;2.50;;;2.03;;
27293;SDS011;14785;52.556;13.430;2022-07-25T00:41:49;6.33;;;2.77;;
27293;SDS011;14785;52.556;13.430;2022-07-25T00:44:22;2.67;;;2.20;;
27293;SDS011;14785;52.556;13.430;2022-07-25T00:46:51;2.65;;;2.03;;
27293;SDS011;14785;52.556;13.430;2022-07-25T00:49:16;3.50;;;2.38;;
27293;SDS011;14785;52.556;13.430;2022-07-25T00:51:42;4.60;;;2.67;;
27293;SDS011;14785;52.556;13.430;2022-07-25T00:56:34;2.55;;;2.10;;
27293;SDS011;14785;52.556;13.430;2022-07-25T00:58:59;3.65;;;2.10;;
27293;SDS011;14785;52.556;13.430;2022-07-25T01:01:25;3.60;;;2.20;;
27293;SDS011;14785;52.556;13.430;2022-07-25T01:03:50;2.93;;;1.87;;
27293;SDS011;14785;52.556;13.430;2022-07-25T01:06:16;3.27;;;1.83;;
27293;SDS011;14785;52.556;13.430;2022-07-25T01:08:41;2.67;;;2.00;;
27293;SDS011;14785;52.556;13.430;2022-07-25T01:11:07;2.35;;;1.75;;
27293;SDS011;14785;52.556;13.430;2022-07-25T01:13:33;2.58;;;1.85;;
27293;SDS011;14785;52.556;13.430;2022-07-25T01:15:58;4.30;;;2.10;;
27293;SDS011;14785;52.556;13.430;2022-07-25T01:18:24;4.07;;;2.40;;
27293;SDS011;14785;52.556;13.430;2022-07-25T01:20:49;3.23;;;2.57;;
27293;SDS011;14785;52.556;13.430;2022-07-25T01:23:15;3.63;;;2.20;;
27293;SDS011;14785;52.556;13.430;2022-07-25T01:25:40;2.90;;;2.00;;
27293;SDS011;14785;52.556;13.430;2022-07-25T01:28:06;3.13;;;2.10;;
27293;SDS011;14785;52.556;13.430;2022-07-25T01:30:34;3.63;;;2.10;;
27293;SDS011;14785;52.556;13.430;2022-07-25T01:32:59;2.47;;;2.07;;
27293;SDS011;14785;52.556;13.430;2022-07-25T01:35:25;4.47;;;1.87;;
27293;SDS011;14785;52.556;13.430;2022-07-25T01:37:50;3.27;;;2.00;;
27293;SDS011;14785;52.556;13.430;2022-07-25T01:40:16;4.30;;;2.20;;
27293;SDS011;14785;52.556;13.430;2022-07-25T01:42:41;5.50;;;2.27;;
27293;SDS011;14785;52.556;13.430;2022-07-25T01:45:07;3.55;;;2.25;;
27293;SDS011;14785;52.556;13.430;2022-07-25T01:49:59;2.23;;;2.03;;
27293;SDS011;14785;52.556;13.430;2022-07-25T01:52:24;3.10;;;1.97;;
27293;SDS011;14785;52.556;13.430;2022-07-25T01:54:49;4.20;;;2.10;;
27293;SDS011;14785;52.556;13.430;2022-07-25T01:57:15;5.03;;;2.30;;
27293;SDS011;14785;52.556;13.430;2022-07-25T01:59:40;2.70;;;1.90;;
27293;SDS011;14785;52.556;13.430;2022-07-25T02:02:06;2.70;;;2.00;;
27293;SDS011;14785;52.556;13.430;2022-07-25T02:04:33;5.88;;;2.38;;
27293;SDS011;14785;52.556;13.430;2022-07-25T02:06:59;3.78;;;2.03;;
27293;SDS011;14785;52.556;13.430;2022-07-25T02:09:25;2.15;;;1.83;;
27293;SDS011;14785;52.556;13.430;2022-07-25T02:11:51;2.20;;;1.90;;
27293;SDS011;14785;52.556;13.430;2022-07-25T02:14:16;5.40;;;2.23;;
27293;SDS011;14785;52.556;13.430;2022-07-25T02:16:41;3.27;;;2.20;;
27293;SDS011;14785;52.556;13.430;2022-07-25T02:19:07;2.67;;;2.10;;
27293;SDS011;14785;52.556;13.430;2022-07-25T02:21:32;3.07;;;2.30;;
27293;SDS011;14785;52.556;13.430;2022-07-25T02:23:58;3.27;;;2.37;;
27293;SDS011;14785;52.556;13.430;2022-07-25T02:26:23;2.60;;;1.90;;
27293;SDS011;14785;52.556;13.430;2022-07-25T02:28:48;2.93;;;2.30;;
27293;SDS011;14785;52.556;13.430;2022-07-25T02:31:14;2.92;;;2.28;;
27293;SDS011;14785;52.556;13.430;2022-07-25T02:33:40;2.57;;;2.13;;
27293;SDS011;14785;52.556;13.430;2022-07-25T02:36:05;2.97;;;2.20;;
27293;SDS011;14785;52.556;13.430;2022-07-25T02:38:31;3.17;;;2.63;;
27293;SDS011;14785;52.556;13.430;2022-07-25T02:40:57;2.90;;;2.30;;
27293;SDS011;14785;52.556;13.430;2022-07-25T02:43:22;4.50;;;2.03;;
27293;SDS011;14785;52.556;13.430;2022-07-25T02:45:47;2.87;;;2.07;;
27293;SDS011;14785;52.556;13.430;2022-07-25T02:48:13;3.73;;;2.50;;
27293;SDS011;14785;52.556;13.430;2022-07-25T02:50:38;3.55;;;2.35;;
27293;SDS011;14785;52.556;13.430;2022-07-25T02:53:04;4.73;;;2.17;;
27293;SDS011;14785;52.556;13.430;2022-07-25T02:55:30;2.70;;;2.03;;
27293;SDS011;14785;52.556;13.430;2022-07-25T02:57:55;2.40;;;2.20;;
27293;SDS011;14785;52.556;13.430;2022-07-25T03:00:21;4.33;;;2.50;;
27293;SDS011;14785;52.556;13.430;2022-07-25T03:02:47;3.35;;;2.60;;
27293;SDS011;14785;52.556;13.430;2022-07-25T03:05:13;3.57;;;2.43;;
27293;SDS011;14785;52.556;13.430;2022-07-25T03:07:40;2.40;;;2.20;;
27293;SDS011;14785;52.556;13.430;2022-07-25T03:10:07;2.95;;;2.30;;
27293;SDS011;14785;52.556;13.430;2022-07-25T03:12:33;6.50;;;2.90;;
27293;SDS011;14785;52.556;13.430;2022-07-25T03:15:00;4.10;;;2.63;;
27293;SDS011;14785;52.556;13.430;2022-07-25T03:19:52;2.97;;;2.50;;
27293;SDS011;14785;52.556;13.430;2022-07-25T03:24:44;4.35;;;2.67;;
27293;SDS011;14785;52.556;13.430;2022-07-25T03:27:09;5.40;;;2.73;;
27293;SDS011;14785;52.556;13.430;2022-07-25T03:29:35;4.23;;;2.50;;
27293;SDS011;14785;52.556;13.430;2022-07-25T03:32:00;4.67;;;2.50;;
27293;SDS011;14785;52.556;13.430;2022-07-25T03:34:26;4.33;;;2.43;;
27293;SDS011;14785;52.556;13.430;2022-07-25T03:36:52;3.80;;;2.72;;
27293;SDS011;14785;52.556;13.430;2022-07-25T03:39:17;5.97;;;3.63;;
27293;SDS011;14785;52.556;13.430;2022-07-25T03:41:44;5.57;;;3.50;;
27293;SDS011;14785;52.556;13.430;2022-07-25T03:44:10;4.65;;;3.17;;
27293;SDS011;14785;52.556;13.430;2022-07-25T03:46:35;10.73;;;5.27;;
27293;SDS011;14785;52.556;13.430;2022-07-25T03:49:01;3.77;;;2.73;;
27293;SDS011;14785;52.556;13.430;2022-07-25T03:51:26;6.27;;;2.20;;
27293;SDS011;14785;52.556;13.430;2022-07-25T03:53:51;6.97;;;2.70;;
27293;SDS011;14785;52.556;13.430;2022-07-25T03:56:26;4.93;;;2.30;;
27293;SDS011;14785;52.556;13.430;2022-07-25T03:58:55;6.38;;;2.72;;
27293;SDS011;14785;52.556;13.430;2022-07-25T04:01:20;5.37;;;2.63;;
27293;SDS011;14785;52.556;13.430;2022-07-25T04:03:46;4.35;;;2.85;;
27293;SDS011;14785;52.556;13.430;2022-07-25T04:06:11;2.80;;;2.40;;
27293;SDS011;14785;52.556;13.430;2022-07-25T04:08:37;4.47;;;2.77;;
27293;SDS011;14785;52.556;13.430;2022-07-25T04:11:02;3.77;;;2.67;;
27293;SDS011;14785;52.556;13.430;2022-07-25T04:13:28;2.70;;;2.50;;
27293;SDS011;14785;52.556;13.430;2022-07-25T04:15:53;2.97;;;2.60;;
27293;SDS011;14785;52.556;13.430;2022-07-25T04:18:19;4.90;;;2.53;;
27293;SDS011;14785;52.556;13.430;2022-07-25T04:20:44;5.20;;;2.90;;
27293;SDS011;14785;52.556;13.430;2022-07-25T04:23:10;3.70;;;2.80;;
27293;SDS011;14785;52.556;13.430;2022-07-25T04:25:35;3.53;;;2.80;;
27293;SDS011;14785;52.556;13.430;2022-07-25T04:28:01;5.85;;;2.42;;
27293;SDS011;14785;52.556;13.430;2022-07-25T04:30:26;8.87;;;2.57;;
27293;SDS011;14785;52.556;13.430;2022-07-25T04:32:52;5.40;;;2.70;;
27293;SDS011;14785;52.556;13.430;2022-07-25T04:35:17;3.77;;;2.60;;
27293;SDS011;14785;52.556;13.430;2022-07-25T04:37:43;7.53;;;2.83;;
27293;SDS011;14785;52.556;13.430;2022-07-25T04:40:08;4.73;;;2.83;;
27293;SDS011;14785;52.556;13.430;2022-07-25T04:42:35;4.05;;;2.67;;
27293;SDS011;14785;52.556;13.430;2022-07-25T04:45:00;7.47;;;3.33;;
27293;SDS011;14785;52.556;13.430;2022-07-25T04:47:26;8.20;;;2.90;;
27293;SDS011;14785;52.556;13.430;2022-07-25T04:49:51;2.90;;;2.60;;
27293;SDS011;14785;52.556;13.430;2022-07-25T04:52:17;4.90;;;2.60;;
27293;SDS011;14785;52.556;13.430;2022-07-25T04:54:42;5.90;;;2.70;;
27293;SDS011;14785;52.556;13.430;2022-07-25T04:57:07;5.53;;;2.60;;
27293;SDS011;14785;52.556;13.430;2022-07-25T04:59:33;6.45;;;2.50;;
27293;SDS011;14785;52.556;13.430;2022-07-25T05:01:58;3.80;;;2.30;;
27293;SDS011;14785;52.556;13.430;2022-07-25T05:04:25;7.00;;;2.65;;
27293;SDS011;14785;52.556;13.430;2022-07-25T05:06:50;6.53;;;2.73;;
27293;SDS011;14785;52.556;13.430;2022-07-25T05:09:16;7.17;;;2.67;;
27293;SDS011;14785;52.556;13.430;2022-07-25T05:11:41;3.57;;;2.50;;
27293;SDS011;14785;52.556;13.430;2022-07-25T05:14:06;6.33;;;2.70;;
27293;SDS011;14785;52.556;13.430;2022-07-25T05:16:32;6.73;;;3.10;;
27293;SDS011;14785;52.556;13.430;2022-07-25T05:18:57;6.47;;;2.53;;
27293;SDS011;14785;52.556;13.430;2022-07-25T05:21:22;3.77;;;2.67;;
27293;SDS011;14785;52.556;13.430;2022-07-25T05:23:48;5.00;;;2.20;;
27293;SDS011;14785;52.556;13.430;2022-07-25T05:26:13;3.63;;;2.40;;
27293;SDS011;14785;52.556;13.430;2022-07-25T05:28:38;5.93;;;3.00;;
27293;SDS011;14785;52.556;13.430;2022-07-25T05:31:04;4.93;;;2.80;;
27293;SDS011;14785;52.556;13.430;2022-07-25T05:33:29;4.57;;;2.60;;
27293;SDS011;14785;52.556;13.430;2022-07-25T05:35:54;2.97;;;2.23;;
27293;SDS011;14785;52.556;13.430;2022-07-25T05:38:20;5.43;;;2.33;;
27293;SDS011;14785;52.556;13.430;2022-07-25T05:40:45;37.00;;;20.30;;
27293;SDS011;14785;52.556;13.430;2022-07-25T05:43:11;10.30;;;5.20;;
27293;SDS011;14785;52.556;13.430;2022-07-25T05:45:36;4.30;;;2.97;;
27293;SDS011;14785;52.556;13.430;2022-07-25T05:48:01;5.40;;;2.80;;
27293;SDS011;14785;52.556;13.430;2022-07-25T05:50:27;5.63;;;3.00;;
27293;SDS011;14785;52.556;13.430;2022-07-25T05:52:52;4.43;;;2.63;;
27293;SDS011;14785;52.556;13.430;2022-07-25T05:55:18;5.70;;;2.67;;
27293;SDS011;14785;52.556;13.430;2022-07-25T05:57:43;7.00;;;3.00;;
27293;SDS011;14785;52.556;13.430;2022-07-25T06:00:09;4.90;;;2.95;;
27293;SDS011;14785;52.556;13.430;2022-07-25T06:02:35;8.25;;;2.72;;
27293;SDS011;14785;52.556;13.430;2022-07-25T06:05:00;4.57;;;3.27;;
27293;SDS011;14785;52.556;13.430;2022-07-25T06:07:25;9.07;;;5.50;;
27293;SDS011;14785;52.556;13.430;2022-07-25T06:09:51;8.37;;;5.17;;
27293;SDS011;14785;52.556;13.430;2022-07-25T06:12:16;5.73;;;3.90;;
27293;SDS011;14785;52.556;13.430;2022-07-25T06:14:41;7.70;;;3.27;;
27293;SDS011;14785;52.556;13.430;2022-07-25T06:17:07;7.57;;;3.40;;
27293;SDS011;14785;52.556;13.430;2022-07-25T06:19:32;8.17;;;3.17;;
27293;SDS011;14785;52.556;13.430;2022-07-25T06:21:57;8.23;;;3.13;;
27293;SDS011;14785;52.556;13.430;2022-07-25T06:24:23;5.47;;;3.17;;
27293;SDS011;14785;52.556;13.430;2022-07-25T06:26:48;6.23;;;2.83;;
27293;SDS011;14785;52.556;13.430;2022-07-25T06:29:13;4.90;;;3.50;;
27293;SDS011;14785;52.556;13.430;2022-07-25T06:31:39;8.40;;;3.53;;
27293;SDS011;14785;52.556;13.430;2022-07-25T06:34:04;9.10;;;3.87;;
27293;SDS011;14785;52.556;13.430;2022-07-25T06:36:29;7.50;;;3.90;;
27293;SDS011;14785;52.556;13.430;2022-07-25T06:38:55;4.73;;;3.47;;
27293;SDS011;14785;52.556;13.430;2022-07-25T06:41:20;8.60;;;3.80;;
27293;SDS011;14785;52.556;13.430;2022-07-25T06:43:45;7.60;;;3.63;;
27293;SDS011;14785;52.556;13.430;2022-07-25T06:46:11;9.83;;;4.27;;
27293;SDS011;14785;52.556;13.430;2022-07-25T06:48:36;8.60;;;3.57;;
27293;SDS011;14785;52.556;13.430;2022-07-25T06:51:02;11.13;;;3.97;;
27293;SDS011;14785;52.556;13.430;2022-07-25T06:55:53;7.13;;;3.57;;
27293;SDS011;14785;52.556;13.430;2022-07-25T06:58:19;9.70;;;3.60;;
27293;SDS011;14785;52.556;13.430;2022-07-25T07:00:44;7.65;;;3.50;;
27293;SDS011;14785;52.556;13.430;2022-07-25T07:03:10;11.10;;;4.17;;
27293;SDS011;14785;52.556;13.430;2022-07-25T07:05:35;5.13;;;3.93;;
27293;SDS011;14785;52.556;13.430;2022-07-25T07:08:01;8.18;;;3.58;;
27293;SDS011;14785;52.556;13.430;2022-07-25T07:10:27;6.35;;;3.97;;
27293;SDS011;14785;52.556;13.430;2022-07-25T07:13:03;5.78;;;3.95;;
27293;SDS011;14785;52.556;13.430;2022-07-25T07:15:31;6.65;;;3.80;;
27293;SDS011;14785;52.556;13.430;2022-07-25T07:17:56;9.40;;;3.80;;
27293;SDS011;14785;52.556;13.430;2022-07-25T07:20:21;10.77;;;4.40;;
27293;SDS011;14785;52.556;13.430;2022-07-25T07:22:47;5.63;;;4.27;;
27293;SDS011;14785;52.556;13.430;2022-07-25T07:27:40;7.53;;;3.85;;
27293;SDS011;14785;52.556;13.430;2022-07-25T07:30:05;7.93;;;4.20;;
27293;SDS011;14785;52.556;13.430;2022-07-25T07:32:31;8.23;;;4.55;;
27293;SDS011;14785;52.556;13.430;2022-07-25T07:34:57;8.27;;;4.40;;
27293;SDS011;14785;52.556;13.430;2022-07-25T07:37:22;10.00;;;4.20;;
27293;SDS011;14785;52.556;13.430;2022-07-25T07:39:47;7.23;;;4.43;;
27293;SDS011;14785;52.556;13.430;2022-07-25T07:44:39;9.40;;;4.53;;
27293;SDS011;14785;52.556;13.430;2022-07-25T07:47:04;15.17;;;8.00;;
27293;SDS011;14785;52.556;13.430;2022-07-25T07:49:29;11.53;;;4.87;;
27293;SDS011;14785;52.556;13.430;2022-07-25T07:51:55;6.97;;;4.03;;
27293;SDS011;14785;52.556;13.430;2022-07-25T07:54:20;5.93;;;4.50;;
27293;SDS011;14785;52.556;13.430;2022-07-25T07:57:04;7.13;;;4.63;;
27293;SDS011;14785;52.556;13.430;2022-07-25T07:59:29;6.20;;;4.40;;
27293;SDS011;14785;52.556;13.430;2022-07-25T08:01:55;5.37;;;4.87;;
27293;SDS011;14785;52.556;13.430;2022-07-25T08:04:20;10.68;;;4.20;;
27293;SDS011;14785;52.556;13.430;2022-07-25T08:06:46;7.97;;;4.40;;
27293;SDS011;14785;52.556;13.430;2022-07-25T08:09:11;10.13;;;4.83;;
27293;SDS011;14785;52.556;13.430;2022-07-25T08:11:36;9.80;;;4.53;;
27293;SDS011;14785;52.556;13.430;2022-07-25T08:14:02;5.30;;;4.43;;
27293;SDS011;14785;52.556;13.430;2022-07-25T08:16:28;10.55;;;4.40;;
27293;SDS011;14785;52.556;13.430;2022-07-25T08:18:54;6.90;;;4.67;;
27293;SDS011;14785;52.556;13.430;2022-07-25T08:21:19;17.50;;;5.40;;
27293;SDS011;14785;52.556;13.430;2022-07-25T08:23:44;10.03;;;5.30;;
27293;SDS011;14785;52.556;13.430;2022-07-25T08:26:11;7.20;;;5.20;;
27293;SDS011;14785;52.556;13.430;2022-07-25T08:28:38;9.82;;;5.60;;
27293;SDS011;14785;52.556;13.430;2022-07-25T08:31:03;10.02;;;5.20;;
27293;SDS011;14785;52.556;13.430;2022-07-25T08:33:29;9.10;;;5.07;;
27293;SDS011;14785;52.556;13.430;2022-07-25T08:35:55;7.72;;;5.70;;
27293;SDS011;14785;52.556;13.430;2022-07-25T08:38:23;7.78;;;5.88;;
27293;SDS011;14785;52.556;13.430;2022-07-25T08:40:50;8.55;;;6.50;;
27293;SDS011;14785;52.556;13.430;2022-07-25T08:43:16;10.35;;;6.13;;
27293;SDS011;14785;52.556;13.430;2022-07-25T08:45:49;10.00;;;5.93;;
27293;SDS011;14785;52.556;13.430;2022-07-25T08:48:17;9.05;;;6.03;;
27293;SDS011;14785;52.556;13.430;2022-07-25T08:50:44;9.07;;;5.70;;
27293;SDS011;14785;52.556;13.430;2022-07-25T08:53:11;12.35;;;5.70;;
27293;SDS011;14785;52.556;13.430;2022-07-25T08:55:38;25.50;;;5.80;;
27293;SDS011;14785;52.556;13.430;2022-07-25T08:58:03;8.38;;;6.07;;
27293;SDS011;14785;52.556;13.430;2022-07-25T09:00:29;8.65;;;5.50;;
27293;SDS011;14785;52.556;13.430;2022-07-25T09:02:55;10.33;;;6.03;;
27293;SDS011;14785;52.556;13.430;2022-07-25T09:05:23;7.22;;;5.78;;
27293;SDS011;14785;52.556;13.430;2022-07-25T09:07:50;11.73;;;5.97;;
27293;SDS011;14785;52.556;13.430;2022-07-25T09:10:23;7.80;;;6.63;;
27293;SDS011;14785;52.556;13.430;2022-07-25T09:15:27;11.03;;;5.97;;
27293;SDS011;14785;52.556;13.430;2022-07-25T09:17:58;10.50;;;6.85;;
27293;SDS011;14785;52.556;13.430;2022-07-25T09:20:47;9.75;;;6.53;;
27293;SDS011;14785;52.556;13.430;2022-07-25T09:23:34;9.48;;;6.82;;
27293;SDS011;14785;52.556;13.430;2022-07-25T09:26:01;16.65;;;7.13;;
27293;SDS011;14785;52.556;13.430;2022-07-25T09:28:29;9.35;;;6.75;;
27293;SDS011;14785;52.556;13.430;2022-07-25T09:30:55;9.70;;;7.40;;
27293;SDS011;14785;52.556;13.430;2022-07-25T09:33:22;7.80;;;6.35;;
27293;SDS011;14785;52.556;13.430;2022-07-25T09:35:49;10.52;;;7.53;;
27293;SDS011;14785;52.556;13.430;2022-07-25T09:38:15;11.93;;;7.65;;
27293;SDS011;14785;52.556;13.430;2022-07-25T09:40:52;9.13;;;7.15;;
27293;SDS011;14785;52.556;13.430;2022-07-25T09:43:22;11.73;;;7.03;;
27293;SDS011;14785;52.556;13.430;2022-07-25T09:45:58;11.05;;;7.85;;
27293;SDS011;14785;52.556;13.430;2022-07-25T09:48:25;13.60;;;7.22;;
27293;SDS011;14785;52.556;13.430;2022-07-25T09:50:51;14.80;;;11.07;;
27293;SDS011;14785;52.556;13.430;2022-07-25T09:53:16;10.68;;;7.65;;
27293;SDS011;14785;52.556;13.430;2022-07-25T09:55:43;10.43;;;7.07;;
27293;SDS011;14785;52.556;13.430;2022-07-25T09:58:08;10.63;;;7.50;;
27293;SDS011;14785;52.556;13.430;2022-07-25T10:06:07;9.95;;;7.65;;
27293;SDS011;14785;52.556;13.430;2022-07-25T10:08:41;11.18;;;6.88;;
27293;SDS011;14785;52.556;13.430;2022-07-25T10:13:42;11.20;;;7.47;;
27293;SDS011;14785;52.556;13.430;2022-07-25T10:18:45;12.02;;;7.55;;
27293;SDS011;14785;52.556;13.430;2022-07-25T10:21:15;9.55;;;7.03;;
27293;SDS011;14785;52.556;13.430;2022-07-25T10:23:41;11.10;;;7.95;;
27293;SDS011;14785;52.556;13.430;2022-07-25T10:28:41;9.35;;;7.00;;
27293;SDS011;14785;52.556;13.430;2022-07-25T10:31:16;9.50;;;6.80;;
27293;SDS011;14785;52.556;13.430;2022-07-25T10:34:02;11.32;;;9.15;;
27293;SDS011;14785;52.556;13.430;2022-07-25T10:36:46;14.02;;;7.63;;
27293;SDS011;14785;52.556;13.430;2022-07-25T10:39:13;8.07;;;7.05;;
27293;SDS011;14785;52.556;13.430;2022-07-25T10:41:48;8.13;;;6.72;;
27293;SDS011;14785;52.556;13.430;2022-07-25T10:44:15;11.98;;;7.57;;
27293;SDS011;14785;52.556;13.430;2022-07-25T10:46:41;9.02;;;6.82;;
27293;SDS011;14785;52.556;13.430;2022-07-25T10:49:18;9.95;;;7.45;;
27293;SDS011;14785;52.556;13.430;2022-07-25T10:51:55;8.73;;;7.50;;
27293;SDS011;14785;52.556;13.430;2022-07-25T10:54:24;9.48;;;7.30;;
27293;SDS011;14785;52.556;13.430;2022-07-25T10:56:56;12.95;;;7.35;;
27293;SDS011;14785;52.556;13.430;2022-07-25T10:59:30;10.73;;;8.00;;
27293;SDS011;14785;52.556;13.430;2022-07-25T11:02:00;10.13;;;8.05;;
27293;SDS011;14785;52.556;13.430;2022-07-25T11:04:30;9.93;;;7.32;;
27293;SDS011;14785;52.556;13.430;2022-07-25T11:06:56;9.57;;;7.38;;
27293;SDS011;14785;52.556;13.430;2022-07-25T11:09:31;9.00;;;7.03;;
27293;SDS011;14785;52.556;13.430;2022-07-25T11:11:57;12.03;;;7.73;;
27293;SDS011;14785;52.556;13.430;2022-07-25T11:19:41;16.30;;;7.30;;
27293;SDS011;14785;52.556;13.430;2022-07-25T11:22:08;7.68;;;6.90;;
27293;SDS011;14785;52.556;13.430;2022-07-25T11:24:38;12.75;;;7.22;;
27293;SDS011;14785;52.556;13.430;2022-07-25T11:27:05;7.82;;;6.82;;
27293;SDS011;14785;52.556;13.430;2022-07-25T11:29:31;9.65;;;7.65;;
27293;SDS011;14785;52.556;13.430;2022-07-25T11:32:02;8.05;;;6.90;;
27293;SDS011;14785;52.556;13.430;2022-07-25T11:34:34;9.63;;;6.95;;
27293;SDS011;14785;52.556;13.430;2022-07-25T11:37:02;7.68;;;6.38;;
27293;SDS011;14785;52.556;13.430;2022-07-25T11:39:30;7.40;;;6.70;;
27293;SDS011;14785;52.556;13.430;2022-07-25T11:42:01;9.05;;;6.85;;
27293;SDS011;14785;52.556;13.430;2022-07-25T11:44:40;7.63;;;6.90;;
27293;SDS011;14785;52.556;13.430;2022-07-25T11:47:09;7.50;;;6.80;;
27293;SDS011;14785;52.556;13.430;2022-07-25T11:49:48;12.18;;;7.30;;
27293;SDS011;14785;52.556;13.430;2022-07-25T11:54:51;7.55;;;6.47;;
27293;SDS011;14785;52.556;13.430;2022-07-25T11:57:21;8.40;;;6.78;;
27293;SDS011;14785;52.556;13.430;2022-07-25T11:59:48;7.43;;;6.25;;
27293;SDS011;14785;52.556;13.430;2022-07-25T12:02:47;8.10;;;6.72;;
27293;SDS011;14785;52.556;13.430;2022-07-25T12:05:06;7.65;;;6.82;;
27293;SDS011;14785;52.556;13.430;2022-07-25T12:10:02;8.20;;;6.68;;
27293;SDS011;14785;52.556;13.430;2022-07-25T12:12:27;11.38;;;6.40;;
27293;SDS011;14785;52.556;13.430;2022-07-25T12:14:53;7.33;;;6.37;;
27293;SDS011;14785;52.556;13.430;2022-07-25T12:17:18;7.30;;;6.60;;
27293;SDS011;14785;52.556;13.430;2022-07-25T12:19:44;7.73;;;6.43;;
27293;SDS011;14785;52.556;13.430;2022-07-25T12:22:11;10.70;;;7.18;;
27293;SDS011;14785;52.556;13.430;2022-07-25T12:24:37;10.48;;;7.07;;
27293;SDS011;14785;52.556;13.430;2022-07-25T12:27:02;7.40;;;6.57;;
27293;SDS011;14785;52.556;13.430;2022-07-25T12:29:28;8.40;;;6.60;;
27293;SDS011;14785;52.556;13.430;2022-07-25T12:31:53;7.57;;;6.70;;
27293;SDS011;14785;52.556;13.430;2022-07-25T12:34:18;8.73;;;6.60;;
27293;SDS011;14785;52.556;13.430;2022-07-25T12:36:43;8.00;;;6.87;;
27293;SDS011;14785;52.556;13.430;2022-07-25T12:39:09;8.07;;;6.32;;
27293;SDS011;14785;52.556;13.430;2022-07-25T12:41:35;7.97;;;6.78;;
27293;SDS011;14785;52.556;13.430;2022-07-25T12:44:00;7.27;;;6.50;;
27293;SDS011;14785;52.556;13.430;2022-07-25T12:46:28;8.05;;;6.38;;
27293;SDS011;14785;52.556;13.430;2022-07-25T12:48:53;10.10;;;6.77;;
27293;SDS011;14785;52.556;13.430;2022-07-25T12:51:18;10.73;;;7.00;;
27293;SDS011;14785;52.556;13.430;2022-07-25T12:53:44;8.77;;;6.70;;
27293;SDS011;14785;52.556;13.430;2022-07-25T12:56:09;7.30;;;6.57;;
27293;SDS011;14785;52.556;13.430;2022-07-25T12:58:35;7.50;;;6.35;;
27293;SDS011;14785;52.556;13.430;2022-07-25T13:01:01;10.68;;;6.85;;
27293;SDS011;14785;52.556;13.430;2022-07-25T13:03:26;12.88;;;6.97;;
27293;SDS011;14785;52.556;13.430;2022-07-25T13:05:52;10.47;;;6.77;;
27293;SDS011;14785;52.556;13.430;2022-07-25T13:08:17;8.53;;;6.43;;
27293;SDS011;14785;52.556;13.430;2022-07-25T13:10:42;9.73;;;6.47;;
27293;SDS011;14785;52.556;13.430;2022-07-25T13:13:08;11.93;;;6.97;;
27293;SDS011;14785;52.556;13.430;2022-07-25T13:15:33;8.00;;;6.60;;
27293;SDS011;14785;52.556;13.430;2022-07-25T13:18:00;7.45;;;6.68;;
27293;SDS011;14785;52.556;13.430;2022-07-25T13:20:26;7.18;;;6.30;;
27293;SDS011;14785;52.556;13.430;2022-07-25T13:22:52;9.43;;;6.82;;
27293;SDS011;14785;52.556;13.430;2022-07-25T13:25:17;7.82;;;6.50;;
27293;SDS011;14785;52.556;13.430;2022-07-25T13:27:43;9.40;;;6.47;;
27293;SDS011;14785;52.556;13.430;2022-07-25T13:30:08;11.23;;;6.73;;
27293;SDS011;14785;52.556;13.430;2022-07-25T13:32:34;8.75;;;6.38;;
27293;SDS011;14785;52.556;13.430;2022-07-25T13:35:00;9.05;;;7.03;;
27293;SDS011;14785;52.556;13.430;2022-07-25T13:37:26;8.60;;;6.30;;
27293;SDS011;14785;52.556;13.430;2022-07-25T13:39:51;10.13;;;6.90;;
27293;SDS011;14785;52.556;13.430;2022-07-25T13:42:16;11.70;;;6.80;;
27293;SDS011;14785;52.556;13.430;2022-07-25T13:44:42;11.05;;;6.65;;
27293;SDS011;14785;52.556;13.430;2022-07-25T13:47:07;7.18;;;5.97;;
27293;SDS011;14785;52.556;13.430;2022-07-25T13:49:32;12.27;;;7.47;;
27293;SDS011;14785;52.556;13.430;2022-07-25T13:51:58;9.02;;;6.30;;
27293;SDS011;14785;52.556;13.430;2022-07-25T13:54:23;7.05;;;6.35;;
27293;SDS011;14785;52.556;13.430;2022-07-25T13:56:49;8.63;;;6.20;;
27293;SDS011;14785;52.556;13.430;2022-07-25T13:59:14;8.00;;;5.78;;
27293;SDS011;14785;52.556;13.430;2022-07-25T14:01:39;6.70;;;5.97;;
27293;SDS011;14785;52.556;13.430;2022-07-25T14:04:05;9.57;;;6.53;;
27293;SDS011;14785;52.556;13.430;2022-07-25T14:06:30;7.37;;;5.90;;
27293;SDS011;14785;52.556;13.430;2022-07-25T14:08:55;6.97;;;5.97;;
27293;SDS011;14785;52.556;13.430;2022-07-25T14:11:21;7.97;;;6.15;;
27293;SDS011;14785;52.556;13.430;2022-07-25T14:13:46;22.30;;;17.07;;
27293;SDS011;14785;52.556;13.430;2022-07-25T14:16:12;8.82;;;6.18;;
27293;SDS011;14785;52.556;13.430;2022-07-25T14:18:40;8.13;;;6.22;;
27293;SDS011;14785;52.556;13.430;2022-07-25T14:21:05;12.33;;;6.13;;
27293;SDS011;14785;52.556;13.430;2022-07-25T14:23:31;8.43;;;6.23;;
27293;SDS011;14785;52.556;13.430;2022-07-25T14:25:57;7.40;;;6.03;;
27293;SDS011;14785;52.556;13.430;2022-07-25T14:28:22;9.68;;;6.55;;
27293;SDS011;14785;52.556;13.430;2022-07-25T14:30:48;6.30;;;5.70;;
27293;SDS011;14785;52.556;13.430;2022-07-25T14:33:13;7.40;;;6.00;;
27293;SDS011;14785;52.556;13.430;2022-07-25T14:35:39;6.93;;;5.87;;
27293;SDS011;14785;52.556;13.430;2022-07-25T14:38:04;8.57;;;6.47;;
27293;SDS011;14785;52.556;13.430;2022-07-25T14:40:30;8.52;;;6.13;;
27293;SDS011;14785;52.556;13.430;2022-07-25T14:42:55;7.97;;;6.28;;
27293;SDS011;14785;52.556;13.430;2022-07-25T14:45:21;8.68;;;6.60;;
27293;SDS011;14785;52.556;13.430;2022-07-25T14:47:46;7.27;;;5.93;;
27293;SDS011;14785;52.556;13.430;2022-07-25T14:50:12;8.32;;;6.32;;
27293;SDS011;14785;52.556;13.430;2022-07-25T14:52:37;10.77;;;6.25;;
27293;SDS011;14785;52.556;13.430;2022-07-25T14:55:02;10.30;;;6.90;;
27293;SDS011;14785;52.556;13.430;2022-07-25T14:57:28;8.50;;;6.97;;
27293;SDS011;14785;52.556;13.430;2022-07-25T14:59:53;9.13;;;6.97;;
27293;SDS011;14785;52.556;13.430;2022-07-25T15:02:19;7.18;;;6.22;;
27293;SDS011;14785;52.556;13.430;2022-07-25T15:04:44;11.65;;;8.90;;
27293;SDS011;14785;52.556;13.430;2022-07-25T15:07:09;12.90;;;6.93;;
27293;SDS011;14785;52.556;13.430;2022-07-25T15:09:35;7.57;;;6.10;;